sensor_id;sensor_type;location;lat;lon;timestamp;pressure;altitude;pressure_sealevel;temperature;humidity
67109;BME280;54027;50.786;7.058;2023-02-13T00:02:24;103243.84;;;8.97;82.81
67109;BME280;54027;50.786;7.058;2023-02-13T00:04:49;103247.31;;;8.98;82.94
67109;BME280;54027;50.786;7.058;2023-02-13T00:07:15;103249.19;;;9.02;81.80
67109;BME280;54027;50.786;7.058;2023-02-13T00:09:40;103242.31;;;9.02;82.04
67109;BME280;54027;50.786;7.058;2023-02-13T00:12:06;103244.06;;;9.03;81.77
67109;BME280;54027;50.786;7.058;2023-02-13T00:14:38;103245.78;;;9.03;82.53
67109;BME280;54027;50.786;7.058;2023-02-13T00:17:04;103243.97;;;9.00;82.41
67109;BME280;54027;50.786;7.058;2023-02-13T00:19:29;103238.75;;;8.99;83.24
67109;BME280;54027;50.786;7.058;2023-02-13T00:21:54;103235.31;;;8.98;82.89
67109;BME280;54027;50.786;7.058;2023-02-13T00:24:19;103234.41;;;8.98;82.92
67109;BME280;54027;50.786;7.058;2023-02-13T00:26:45;103238.69;;;8.97;82.57
67109;BME280;54027;50.786;7.058;2023-02-13T00:29:10;103234.41;;;8.98;82.19
67109;BME280;54027;50.786;7.058;2023-02-13T00:31:35;103228.44;;;8.99;82.47
67109;BME280;54027;50.786;7.058;2023-02-13T00:34:00;103226.69;;;8.98;82.16
67109;BME280;54027;50.786;7.058;2023-02-13T00:36:26;103229.19;;;8.96;82.11
67109;BME280;54027;50.786;7.058;2023-02-13T00:38:52;103229.19;;;8.96;82.22
67109;BME280;54027;50.786;7.058;2023-02-13T00:41:17;103225.78;;;8.97;82.22
67109;BME280;54027;50.786;7.058;2023-02-13T00:43:43;103224.22;;;9.01;81.86
67109;BME280;54027;50.786;7.058;2023-02-13T00:46:08;103220.75;;;9.00;81.91
67109;BME280;54027;50.786;7.058;2023-02-13T00:48:34;103217.28;;;9.00;81.63
67109;BME280;54027;50.786;7.058;2023-02-13T00:50:59;103214.59;;;8.97;81.75
67109;BME280;54027;50.786;7.058;2023-02-13T00:53:25;103206.97;;;9.00;81.15
67109;BME280;54027;50.786;7.058;2023-02-13T00:55:50;103218.13;;;8.99;82.24
67109;BME280;54027;50.786;7.058;2023-02-13T00:58:16;103212.19;;;9.01;81.83
67109;BME280;54027;50.786;7.058;2023-02-13T01:00:42;103215.59;;;9.00;82.23
67109;BME280;54027;50.786;7.058;2023-02-13T01:03:07;103217.28;;;9.00;81.78
67109;BME280;54027;50.786;7.058;2023-02-13T01:05:32;103206.09;;;8.99;81.79
67109;BME280;54027;50.786;7.058;2023-02-13T01:07:58;103206.09;;;8.99;81.34
67109;BME280;54027;50.786;7.058;2023-02-13T01:10:23;103208.66;;;8.99;82.06
67109;BME280;54027;50.786;7.058;2023-02-13T01:12:48;103203.50;;;8.99;82.29
67109;BME280;54027;50.786;7.058;2023-02-13T01:15:14;103207.81;;;8.99;82.11
67109;BME280;54027;50.786;7.058;2023-02-13T01:17:39;103198.31;;;8.98;81.33
67109;BME280;54027;50.786;7.058;2023-02-13T01:20:08;103197.38;;;8.96;82.07
67109;BME280;54027;50.786;7.058;2023-02-13T01:22:34;103187.06;;;8.96;82.32
67109;BME280;54027;50.786;7.058;2023-02-13T01:24:59;103197.38;;;8.96;82.02
67109;BME280;54027;50.786;7.058;2023-02-13T01:27:26;103200.69;;;8.93;81.61
67109;BME280;54027;50.786;7.058;2023-02-13T01:29:51;103202.53;;;8.96;81.93
67109;BME280;54027;50.786;7.058;2023-02-13T01:32:16;103202.56;;;8.97;81.81
67109;BME280;54027;50.786;7.058;2023-02-13T01:34:41;103193.06;;;8.96;81.96
67109;BME280;54027;50.786;7.058;2023-02-13T01:37:07;103201.66;;;8.95;82.40
67109;BME280;54027;50.786;7.058;2023-02-13T01:39:32;103200.81;;;8.96;81.81
67109;BME280;54027;50.786;7.058;2023-02-13T01:41:57;103201.66;;;8.95;82.29
67109;BME280;54027;50.786;7.058;2023-02-13T01:47:07;103189.56;;;8.94;81.68
67109;BME280;54027;50.786;7.058;2023-02-13T01:49:32;103194.72;;;8.94;81.67
67109;BME280;54027;50.786;7.058;2023-02-13T01:51:58;103187.78;;;8.93;81.56
67109;BME280;54027;50.786;7.058;2023-02-13T01:54:24;103190.38;;;8.93;82.35
67109;BME280;54027;50.786;7.058;2023-02-13T01:56:56;103188.66;;;8.92;81.37
67109;BME280;54027;50.786;7.058;2023-02-13T01:59:27;103187.78;;;8.93;81.64
67109;BME280;54027;50.786;7.058;2023-02-13T02:01:53;103191.16;;;8.91;81.76
67109;BME280;54027;50.786;7.058;2023-02-13T02:04:24;103190.22;;;8.89;82.03
67109;BME280;54027;50.786;7.058;2023-02-13T02:06:52;103188.44;;;8.88;81.71
67109;BME280;54027;50.786;7.058;2023-02-13T02:09:19;103194.38;;;8.85;82.50
67109;BME280;54027;50.786;7.058;2023-02-13T02:14:27;103183.19;;;8.85;82.08
67109;BME280;54027;50.786;7.058;2023-02-13T02:16:52;103198.63;;;8.83;81.47
67109;BME280;54027;50.786;7.058;2023-02-13T02:20:03;103196.91;;;8.84;81.38
67109;BME280;54027;50.786;7.058;2023-02-13T02:22:15;103203.78;;;8.83;82.24
67109;BME280;54027;50.786;7.058;2023-02-13T02:24:50;103201.22;;;8.85;81.95
67109;BME280;54027;50.786;7.058;2023-02-13T02:27:26;103198.53;;;8.82;82.05
67109;BME280;54027;50.786;7.058;2023-02-13T02:45:44;103199.97;;;8.74;82.27
67109;BME280;54027;50.786;7.058;2023-02-13T02:53:32;103189.50;;;8.69;82.66
67109;BME280;54027;50.786;7.058;2023-02-13T02:58:47;103190.31;;;8.68;82.54
67109;BME280;54027;50.786;7.058;2023-02-13T03:01:33;103192.00;;;8.68;82.73
67109;BME280;54027;50.786;7.058;2023-02-13T03:04:19;103197.09;;;8.66;82.10
67109;BME280;54027;50.786;7.058;2023-02-13T03:07:06;103200.53;;;8.67;82.34
67109;BME280;54027;50.786;7.058;2023-02-13T03:09:34;103198.84;;;8.67;82.46
67109;BME280;54027;50.786;7.058;2023-02-13T03:12:20;103191.94;;;8.66;82.38
67109;BME280;54027;50.786;7.058;2023-02-13T03:15:05;103196.22;;;8.66;82.26
67109;BME280;54027;50.786;7.058;2023-02-13T03:17:30;103199.59;;;8.65;82.40
67109;BME280;54027;50.786;7.058;2023-02-13T03:20:26;103200.50;;;8.65;81.77
67109;BME280;54027;50.786;7.058;2023-02-13T03:23:15;103207.34;;;8.65;82.53
67109;BME280;54027;50.786;7.058;2023-02-13T03:39:08;103212.34;;;8.60;82.01
67109;BME280;54027;50.786;7.058;2023-02-13T03:44:09;103208.81;;;8.58;82.27
67109;BME280;54027;50.786;7.058;2023-02-13T03:46:37;103206.22;;;8.58;82.10
67109;BME280;54027;50.786;7.058;2023-02-13T03:49:04;103207.88;;;8.56;82.25
67109;BME280;54027;50.786;7.058;2023-02-13T03:51:54;103209.53;;;8.54;82.16
67109;BME280;54027;50.786;7.058;2023-02-13T03:54:22;103208.53;;;8.50;82.73
67109;BME280;54027;50.786;7.058;2023-02-13T03:57:07;103208.44;;;8.49;82.41
67109;BME280;54027;50.786;7.058;2023-02-13T03:59:52;103203.94;;;8.43;82.48
67109;BME280;54027;50.786;7.058;2023-02-13T04:02:19;103208.91;;;8.39;82.93
67109;BME280;54027;50.786;7.058;2023-02-13T04:04:48;103201.13;;;8.37;83.05
67109;BME280;54027;50.786;7.058;2023-02-13T04:07:15;103200.81;;;8.30;82.81
67109;BME280;54027;50.786;7.058;2023-02-13T04:09:54;103203.28;;;8.27;82.56
67109;BME280;54027;50.786;7.058;2023-02-13T04:12:20;103203.84;;;8.20;82.95
67109;BME280;54027;50.786;7.058;2023-02-13T04:14:49;103214.78;;;8.14;83.52
67109;BME280;54027;50.786;7.058;2023-02-13T04:17:28;103211.16;;;8.09;83.14
67109;BME280;54027;50.786;7.058;2023-02-13T04:19:56;103215.28;;;8.06;83.69
67109;BME280;54027;50.786;7.058;2023-02-13T04:22:21;103209.25;;;8.05;83.57
67109;BME280;54027;50.786;7.058;2023-02-13T04:24:46;103213.41;;;8.01;83.61
67109;BME280;54027;50.786;7.058;2023-02-13T04:27:13;103220.06;;;7.96;84.22
67109;BME280;54027;50.786;7.058;2023-02-13T04:29:39;103218.38;;;7.97;83.79
67109;BME280;54027;50.786;7.058;2023-02-13T04:32:05;103216.31;;;7.88;84.65
67109;BME280;54027;50.786;7.058;2023-02-13T04:34:30;103219.63;;;7.86;84.48
67109;BME280;54027;50.786;7.058;2023-02-13T04:36:55;103218.53;;;7.81;84.47
67109;BME280;54027;50.786;7.058;2023-02-13T04:39:20;103209.75;;;7.76;84.57
67109;BME280;54027;50.786;7.058;2023-02-13T04:41:45;103205.28;;;7.72;84.75
67109;BME280;54027;50.786;7.058;2023-02-13T04:44:11;103211.81;;;7.64;85.21
67109;BME280;54027;50.786;7.058;2023-02-13T04:46:36;103208.44;;;7.65;85.38
67109;BME280;54027;50.786;7.058;2023-02-13T04:49:01;103210.28;;;7.69;85.06
67109;BME280;54027;50.786;7.058;2023-02-13T04:51:26;103208.59;;;7.69;85.34
67109;BME280;54027;50.786;7.058;2023-02-13T04:53:52;103208.47;;;7.66;84.89
67109;BME280;54027;50.786;7.058;2023-02-13T04:56:17;103204.03;;;7.62;85.58
67109;BME280;54027;50.786;7.058;2023-02-13T04:58:42;103204.84;;;7.61;85.42
67109;BME280;54027;50.786;7.058;2023-02-13T05:01:14;103196.19;;;7.59;85.77
67109;BME280;54027;50.786;7.058;2023-02-13T05:03:40;103204.75;;;7.60;85.37
67109;BME280;54027;50.786;7.058;2023-02-13T05:06:06;103195.47;;;7.63;85.67
67109;BME280;54027;50.786;7.058;2023-02-13T05:08:31;103192.59;;;7.56;85.56
67109;BME280;54027;50.786;7.058;2023-02-13T05:10:56;103196.59;;;7.49;85.94
67109;BME280;54027;50.786;7.058;2023-02-13T05:13:21;103195.44;;;7.42;86.14
67109;BME280;54027;50.786;7.058;2023-02-13T05:15:47;103198.50;;;7.34;86.34
67109;BME280;54027;50.786;7.058;2023-02-13T05:18:12;103203.50;;;7.31;86.58
67109;BME280;54027;50.786;7.058;2023-02-13T05:20:39;103207.59;;;7.26;86.46
67109;BME280;54027;50.786;7.058;2023-02-13T05:23:07;103213.47;;;7.23;86.69
67109;BME280;54027;50.786;7.058;2023-02-13T05:25:48;103214.94;;;7.18;87.08
67109;BME280;54027;50.786;7.058;2023-02-13T05:28:14;103219.88;;;7.14;87.28
67109;BME280;54027;50.786;7.058;2023-02-13T05:31:09;103216.13;;;7.07;87.03
67109;BME280;54027;50.786;7.058;2023-02-13T05:33:34;103218.44;;;7.01;87.49
67109;BME280;54027;50.786;7.058;2023-02-13T05:35:59;103219.69;;;6.91;87.66
67109;BME280;54027;50.786;7.058;2023-02-13T05:38:24;103215.03;;;6.83;87.87
67109;BME280;54027;50.786;7.058;2023-02-13T05:40:50;103217.03;;;6.71;88.21
67109;BME280;54027;50.786;7.058;2023-02-13T05:43:15;103222.56;;;6.61;88.72
67109;BME280;54027;50.786;7.058;2023-02-13T05:45:40;103224.75;;;6.53;89.44
67109;BME280;54027;50.786;7.058;2023-02-13T05:48:06;103217.72;;;6.49;89.53
67109;BME280;54027;50.786;7.058;2023-02-13T05:50:31;103220.34;;;6.51;89.65
67109;BME280;54027;50.786;7.058;2023-02-13T05:52:56;103216.41;;;6.57;89.38
67109;BME280;54027;50.786;7.058;2023-02-13T05:55:21;103219.41;;;6.66;88.81
67109;BME280;54027;50.786;7.058;2023-02-13T05:57:47;103222.84;;;6.67;88.44
67109;BME280;54027;50.786;7.058;2023-02-13T06:00:12;103220.13;;;6.64;88.46
67109;BME280;54027;50.786;7.058;2023-02-13T06:02:37;103215.66;;;6.60;88.44
67109;BME280;54027;50.786;7.058;2023-02-13T06:05:03;103220.59;;;6.55;88.93
67109;BME280;54027;50.786;7.058;2023-02-13T06:07:28;103217.34;;;6.42;88.52
67109;BME280;54027;50.786;7.058;2023-02-13T06:09:53;103218.97;;;6.40;89.05
67109;BME280;54027;50.786;7.058;2023-02-13T06:12:19;103220.97;;;6.27;89.42
67109;BME280;54027;50.786;7.058;2023-02-13T06:14:44;103219.63;;;6.18;89.26
67109;BME280;54027;50.786;7.058;2023-02-13T06:17:09;103225.28;;;6.11;89.72
67109;BME280;54027;50.786;7.058;2023-02-13T06:19:34;103223.06;;;6.01;90.24
67109;BME280;54027;50.786;7.058;2023-02-13T06:21:59;103226.13;;;5.94;90.17
67109;BME280;54027;50.786;7.058;2023-02-13T06:24:25;103226.56;;;5.85;91.10
67109;BME280;54027;50.786;7.058;2023-02-13T06:26:50;103231.53;;;5.82;90.96
67109;BME280;54027;50.786;7.058;2023-02-13T06:29:15;103233.47;;;5.86;91.84
67109;BME280;54027;50.786;7.058;2023-02-13T06:31:40;103230.66;;;5.82;91.82
67109;BME280;54027;50.786;7.058;2023-02-13T06:34:06;103230.78;;;5.85;91.72
67109;BME280;54027;50.786;7.058;2023-02-13T06:36:32;103241.59;;;5.77;91.93
67109;BME280;54027;50.786;7.058;2023-02-13T06:38:57;103237.81;;;5.71;92.33
67109;BME280;54027;50.786;7.058;2023-02-13T06:41:22;103235.09;;;5.68;91.82
67109;BME280;54027;50.786;7.058;2023-02-13T06:43:47;103239.13;;;5.63;92.25
67109;BME280;54027;50.786;7.058;2023-02-13T06:46:13;103236.47;;;5.61;92.52
67109;BME280;54027;50.786;7.058;2023-02-13T06:48:38;103235.34;;;5.56;92.62
67109;BME280;54027;50.786;7.058;2023-02-13T06:51:03;103231.09;;;5.57;93.10
67109;BME280;54027;50.786;7.058;2023-02-13T06:53:29;103225.31;;;5.61;93.46
67109;BME280;54027;50.786;7.058;2023-02-13T06:55:55;103230.53;;;5.62;93.28
67109;BME280;54027;50.786;7.058;2023-02-13T06:58:21;103233.09;;;5.62;92.89
67109;BME280;54027;50.786;7.058;2023-02-13T07:00:46;103224.47;;;5.60;92.99
67109;BME280;54027;50.786;7.058;2023-02-13T07:03:11;103218.50;;;5.61;92.84
67109;BME280;54027;50.786;7.058;2023-02-13T07:05:40;103220.59;;;5.68;92.57
67109;BME280;54027;50.786;7.058;2023-02-13T07:08:06;103218.03;;;5.68;92.50
67109;BME280;54027;50.786;7.058;2023-02-13T07:10:32;103218.66;;;5.64;92.63
67109;BME280;54027;50.786;7.058;2023-02-13T07:12:57;103219.63;;;5.66;93.01
67109;BME280;54027;50.786;7.058;2023-02-13T07:15:22;103216.25;;;5.67;92.48
67109;BME280;54027;50.786;7.058;2023-02-13T07:17:48;103218.97;;;5.70;92.41
67109;BME280;54027;50.786;7.058;2023-02-13T07:20:19;103221.53;;;5.70;92.36
67109;BME280;54027;50.786;7.058;2023-02-13T07:22:44;103224.56;;;5.79;92.71
67109;BME280;54027;50.786;7.058;2023-02-13T07:25:09;103223.81;;;5.82;92.52
67109;BME280;54027;50.786;7.058;2023-02-13T07:27:34;103225.66;;;5.85;92.33
67109;BME280;54027;50.786;7.058;2023-02-13T07:30:00;103227.38;;;5.84;92.50
67109;BME280;54027;50.786;7.058;2023-02-13T07:32:25;103222.16;;;5.83;92.45
67109;BME280;54027;50.786;7.058;2023-02-13T07:34:50;103223.34;;;5.89;91.84
67109;BME280;54027;50.786;7.058;2023-02-13T07:37:15;103227.59;;;5.89;91.74
67109;BME280;54027;50.786;7.058;2023-02-13T07:39:41;103227.59;;;5.89;92.33
67109;BME280;54027;50.786;7.058;2023-02-13T07:42:06;103223.34;;;5.89;91.97
67109;BME280;54027;50.786;7.058;2023-02-13T07:44:31;103221.00;;;5.94;91.82
67109;BME280;54027;50.786;7.058;2023-02-13T07:46:56;103219.41;;;5.96;91.87
67109;BME280;54027;50.786;7.058;2023-02-13T07:49:22;103219.41;;;5.96;91.62
67109;BME280;54027;50.786;7.058;2023-02-13T07:51:47;103222.19;;;6.00;91.67
67109;BME280;54027;50.786;7.058;2023-02-13T07:54:12;103223.38;;;6.07;91.40
67109;BME280;54027;50.786;7.058;2023-02-13T07:56:37;103224.75;;;6.18;91.12
67109;BME280;54027;50.786;7.058;2023-02-13T07:59:03;103223.69;;;6.30;90.34
67109;BME280;54027;50.786;7.058;2023-02-13T08:01:28;103229.84;;;6.34;90.07
67109;BME280;54027;50.786;7.058;2023-02-13T08:03:53;103223.53;;;6.45;89.20
67109;BME280;54027;50.786;7.058;2023-02-13T08:06:19;103223.03;;;6.52;88.83
67109;BME280;54027;50.786;7.058;2023-02-13T08:08:44;103229.31;;;6.59;88.39
67109;BME280;54027;50.786;7.058;2023-02-13T08:11:23;103228.66;;;6.63;88.41
67109;BME280;54027;50.786;7.058;2023-02-13T08:14:08;103232.09;;;6.63;88.24
67109;BME280;54027;50.786;7.058;2023-02-13T08:16:34;103227.84;;;6.64;88.20
67109;BME280;54027;50.786;7.058;2023-02-13T08:18:59;103223.13;;;6.73;87.96
67109;BME280;54027;50.786;7.058;2023-02-13T08:21:24;103229.34;;;6.78;87.55
67109;BME280;54027;50.786;7.058;2023-02-13T08:23:50;103231.41;;;6.85;87.16
67109;BME280;54027;50.786;7.058;2023-02-13T08:26:16;103226.31;;;6.86;87.62
67109;BME280;54027;50.786;7.058;2023-02-13T08:28:41;103233.66;;;6.97;86.90
67109;BME280;54027;50.786;7.058;2023-02-13T08:31:10;103226.91;;;6.99;86.93
67109;BME280;54027;50.786;7.058;2023-02-13T08:33:35;103229.94;;;7.09;86.02
67109;BME280;54027;50.786;7.058;2023-02-13T08:36:03;103234.50;;;7.15;86.15
67109;BME280;54027;50.786;7.058;2023-02-13T08:38:29;103229.72;;;7.22;85.37
67109;BME280;54027;50.786;7.058;2023-02-13T08:40:57;103236.97;;;7.31;84.52
67109;BME280;54027;50.786;7.058;2023-02-13T08:43:22;103237.97;;;7.34;85.17
67109;BME280;54027;50.786;7.058;2023-02-13T08:45:47;103229.50;;;7.37;84.76
67109;BME280;54027;50.786;7.058;2023-02-13T08:48:13;103231.59;;;7.45;84.33
67109;BME280;54027;50.786;7.058;2023-02-13T08:50:38;103235.25;;;7.51;84.16
67109;BME280;54027;50.786;7.058;2023-02-13T08:53:03;103238.09;;;7.57;83.82
67109;BME280;54027;50.786;7.058;2023-02-13T08:55:29;103234.03;;;7.62;83.87
67109;BME280;54027;50.786;7.058;2023-02-13T08:57:58;103232.75;;;7.71;82.96
67109;BME280;54027;50.786;7.058;2023-02-13T09:00:23;103230.59;;;7.82;82.49
67109;BME280;54027;50.786;7.058;2023-02-13T09:02:48;103231.63;;;7.85;82.33
67109;BME280;54027;50.786;7.058;2023-02-13T09:05:13;103222.59;;;7.95;81.21
67109;BME280;54027;50.786;7.058;2023-02-13T09:07:39;103227.16;;;8.02;80.81
67109;BME280;54027;50.786;7.058;2023-02-13T09:10:04;103229.94;;;8.07;80.71
67109;BME280;54027;50.786;7.058;2023-02-13T09:12:29;103231.03;;;8.13;80.28
67109;BME280;54027;50.786;7.058;2023-02-13T09:14:55;103232.19;;;8.20;79.60
67109;BME280;54027;50.786;7.058;2023-02-13T09:17:20;103224.69;;;8.26;78.95
67109;BME280;54027;50.786;7.058;2023-02-13T09:19:45;103219.78;;;8.32;78.67
67109;BME280;54027;50.786;7.058;2023-02-13T09:22:11;103221.72;;;8.37;78.37
67109;BME280;54027;50.786;7.058;2023-02-13T09:24:36;103224.56;;;8.43;78.47
67109;BME280;54027;50.786;7.058;2023-02-13T09:27:03;103216.19;;;8.49;78.83
67109;BME280;54027;50.786;7.058;2023-02-13T09:29:28;103226.72;;;8.55;77.97
67109;BME280;54027;50.786;7.058;2023-02-13T09:31:55;103219.22;;;8.61;78.36
67109;BME280;54027;50.786;7.058;2023-02-13T09:34:21;103199.72;;;8.68;77.09
67109;BME280;54027;50.786;7.058;2023-02-13T09:36:50;103213.78;;;8.76;76.51
67109;BME280;54027;50.786;7.058;2023-02-13T09:39:15;103216.59;;;8.82;76.55
67109;BME280;54027;50.786;7.058;2023-02-13T09:41:41;103212.50;;;8.87;75.87
67109;BME280;54027;50.786;7.058;2023-02-13T09:44:21;103209.38;;;8.95;74.91
67109;BME280;54027;50.786;7.058;2023-02-13T09:49:25;103207.31;;;9.09;74.46
67109;BME280;54027;50.786;7.058;2023-02-13T09:51:53;103208.41;;;9.16;75.44
67109;BME280;54027;50.786;7.058;2023-02-13T09:54:19;103196.63;;;9.22;74.18
67109;BME280;54027;50.786;7.058;2023-02-13T10:01:46;103191.16;;;9.38;72.85
67109;BME280;54027;50.786;7.058;2023-02-13T10:06:44;103183.06;;;9.53;73.00
67109;BME280;54027;50.786;7.058;2023-02-13T10:25:57;103155.41;;;9.99;70.83
67109;BME280;54027;50.786;7.058;2023-02-13T10:28:31;103153.03;;;10.05;70.55
67109;BME280;54027;50.786;7.058;2023-02-13T10:31:01;103153.06;;;10.07;69.70
67109;BME280;54027;50.786;7.058;2023-02-13T10:33:32;103148.06;;;10.13;69.76
67109;BME280;54027;50.786;7.058;2023-02-13T10:38:34;103145.00;;;10.24;70.25
67109;BME280;54027;50.786;7.058;2023-02-13T10:41:04;103146.03;;;10.30;69.28
67109;BME280;54027;50.786;7.058;2023-02-13T10:51:29;103135.47;;;10.50;69.30
67109;BME280;54027;50.786;7.058;2023-02-13T10:54:07;103133.06;;;10.56;68.90
67109;BME280;54027;50.786;7.058;2023-02-13T10:59:26;103124.72;;;10.66;68.63
67109;BME280;54027;50.786;7.058;2023-02-13T11:02:16;103107.50;;;10.68;67.51
67109;BME280;54027;50.786;7.058;2023-02-13T11:04:44;103100.81;;;10.75;68.39
67109;BME280;54027;50.786;7.058;2023-02-13T11:07:10;103105.38;;;10.84;68.10
67109;BME280;54027;50.786;7.058;2023-02-13T11:09:39;103093.31;;;10.84;67.61
67109;BME280;54027;50.786;7.058;2023-02-13T11:12:47;103085.78;;;10.92;67.11
67109;BME280;54027;50.786;7.058;2023-02-13T11:15:35;103071.41;;;11.03;66.98
67109;BME280;54027;50.786;7.058;2023-02-13T11:17:41;103063.03;;;11.13;66.17
67109;BME280;54027;50.786;7.058;2023-02-13T11:22:51;103038.41;;;11.28;64.73
67109;BME280;54027;50.786;7.058;2023-02-13T11:25:21;103025.66;;;11.36;64.71
67109;BME280;54027;50.786;7.058;2023-02-13T11:27:47;103009.50;;;11.45;63.97
67109;BME280;54027;50.786;7.058;2023-02-13T11:32:58;103008.84;;;11.53;63.99
67109;BME280;54027;50.786;7.058;2023-02-13T11:35:28;103006.47;;;11.62;63.91
67109;BME280;54027;50.786;7.058;2023-02-13T11:40:38;102994.59;;;11.72;63.71
67109;BME280;54027;50.786;7.058;2023-02-13T11:43:05;102996.53;;;11.82;63.49
67109;BME280;54027;50.786;7.058;2023-02-13T11:45:31;102996.66;;;11.86;63.31
67109;BME280;54027;50.786;7.058;2023-02-13T11:47:57;103003.69;;;11.92;63.38
67109;BME280;54027;50.786;7.058;2023-02-13T11:55:39;102976.38;;;12.08;62.38
67109;BME280;54027;50.786;7.058;2023-02-13T12:00:36;102992.16;;;12.18;63.21
67109;BME280;54027;50.786;7.058;2023-02-13T12:05:54;102950.06;;;12.31;61.71
67109;BME280;54027;50.786;7.058;2023-02-13T12:08:23;102949.38;;;12.40;61.24
67109;BME280;54027;50.786;7.058;2023-02-13T12:10:48;102944.25;;;12.43;61.40
67109;BME280;54027;50.786;7.058;2023-02-13T12:13:20;102947.75;;;12.46;61.56
67109;BME280;54027;50.786;7.058;2023-02-13T12:15:52;102944.44;;;12.54;61.44
67109;BME280;54027;50.786;7.058;2023-02-13T12:28:22;102941.53;;;12.85;61.25
67109;BME280;54027;50.786;7.058;2023-02-13T12:30:54;102901.84;;;12.92;59.42
67109;BME280;54027;50.786;7.058;2023-02-13T12:35:56;102908.06;;;13.00;59.38
67109;BME280;54027;50.786;7.058;2023-02-13T12:46:04;102894.44;;;13.13;59.07
67109;BME280;54027;50.786;7.058;2023-02-13T12:53:59;102860.84;;;13.25;58.11
67109;BME280;54027;50.786;7.058;2023-02-13T12:58:59;102845.47;;;13.42;56.87
67109;BME280;54027;50.786;7.058;2023-02-13T13:15:33;102821.47;;;13.61;55.21
67109;BME280;54027;50.786;7.058;2023-02-13T13:22:55;102788.75;;;13.78;53.39
67109;BME280;54027;50.786;7.058;2023-02-13T13:27:50;102761.09;;;13.85;52.68
67109;BME280;54027;50.786;7.058;2023-02-13T13:30:24;102766.28;;;13.83;52.17
67109;BME280;54027;50.786;7.058;2023-02-13T13:32:53;102771.56;;;13.91;52.49
67109;BME280;54027;50.786;7.058;2023-02-13T13:35:20;102753.50;;;14.07;51.72
67109;BME280;54027;50.786;7.058;2023-02-13T13:50:26;102709.16;;;15.30;47.95
67109;BME280;54027;50.786;7.058;2023-02-13T13:53:06;102718.69;;;15.15;49.03
67109;BME280;54027;50.786;7.058;2023-02-13T13:58:32;102734.22;;;14.93;49.71
67109;BME280;54027;50.786;7.058;2023-02-13T14:03:33;102760.06;;;14.64;51.16
67109;BME280;54027;50.786;7.058;2023-02-13T14:06:04;102771.28;;;14.55;51.89
67109;BME280;54027;50.786;7.058;2023-02-13T14:08:51;102781.59;;;14.43;52.21
67109;BME280;54027;50.786;7.058;2023-02-13T14:13:50;102759.78;;;14.32;51.03
67109;BME280;54027;50.786;7.058;2023-02-13T14:18:59;102770.97;;;14.22;51.92
67109;BME280;54027;50.786;7.058;2023-02-13T14:21:25;102785.66;;;14.14;52.39
67109;BME280;54027;50.786;7.058;2023-02-13T14:23:50;102789.94;;;14.10;52.76
67109;BME280;54027;50.786;7.058;2023-02-13T14:26:31;102780.34;;;14.05;52.15
67109;BME280;54027;50.786;7.058;2023-02-13T14:28:58;102782.97;;;14.05;52.71
67109;BME280;54027;50.786;7.058;2023-02-13T14:31:28;102787.22;;;13.98;53.24
67109;BME280;54027;50.786;7.058;2023-02-13T14:34:01;102788.06;;;13.96;53.51
67109;BME280;54027;50.786;7.058;2023-02-13T14:36:31;102797.53;;;13.88;54.03
67109;BME280;54027;50.786;7.058;2023-02-13T14:44:09;102802.63;;;13.79;54.14
67109;BME280;54027;50.786;7.058;2023-02-13T14:46:40;102811.25;;;13.76;54.31
67109;BME280;54027;50.786;7.058;2023-02-13T14:49:20;102812.94;;;13.73;54.76
67109;BME280;54027;50.786;7.058;2023-02-13T14:51:50;102818.91;;;13.66;54.77
67109;BME280;54027;50.786;7.058;2023-02-13T14:54:18;102812.00;;;13.65;54.58
67109;BME280;54027;50.786;7.058;2023-02-13T14:56:48;102821.44;;;13.58;55.01
67109;BME280;54027;50.786;7.058;2023-02-13T15:01:56;102816.25;;;13.60;55.05
67109;BME280;54027;50.786;7.058;2023-02-13T15:04:30;102832.63;;;13.52;55.85
67109;BME280;54027;50.786;7.058;2023-02-13T15:06:56;102841.19;;;13.44;56.21
67109;BME280;54027;50.786;7.058;2023-02-13T15:09:37;102844.59;;;13.40;56.32
67109;BME280;54027;50.786;7.058;2023-02-13T15:12:04;102841.06;;;13.35;56.66
67109;BME280;54027;50.786;7.058;2023-02-13T15:14:47;102836.69;;;13.31;56.33
67109;BME280;54027;50.786;7.058;2023-02-13T15:17:17;102843.53;;;13.27;56.91
67109;BME280;54027;50.786;7.058;2023-02-13T15:19:48;102837.44;;;13.22;56.76
67109;BME280;54027;50.786;7.058;2023-02-13T15:22:35;102835.66;;;13.20;56.93
67109;BME280;54027;50.786;7.058;2023-02-13T15:24:59;102846.75;;;13.10;57.31
67109;BME280;54027;50.786;7.058;2023-02-13T15:29:57;102843.25;;;13.06;57.25
67109;BME280;54027;50.786;7.058;2023-02-13T15:32:31;102848.47;;;13.08;57.56
67109;BME280;54027;50.786;7.058;2023-02-13T15:34:57;102837.13;;;12.99;57.15
67109;BME280;54027;50.786;7.058;2023-02-13T15:37:23;102831.00;;;12.99;56.90
67109;BME280;54027;50.786;7.058;2023-02-13T15:39:49;102830.97;;;12.96;57.06
67109;BME280;54027;50.786;7.058;2023-02-13T15:42:14;102832.63;;;12.94;56.55
67109;BME280;54027;50.786;7.058;2023-02-13T15:44:39;102828.31;;;12.93;56.80
67109;BME280;54027;50.786;7.058;2023-02-13T15:49:53;102835.09;;;12.83;56.95
67109;BME280;54027;50.786;7.058;2023-02-13T15:52:29;102832.44;;;12.79;57.08
67109;BME280;54027;50.786;7.058;2023-02-13T15:54:55;102841.00;;;12.75;57.43
67109;BME280;54027;50.786;7.058;2023-02-13T15:57:21;102852.91;;;12.62;58.11
67109;BME280;54027;50.786;7.058;2023-02-13T15:59:47;102850.25;;;12.59;57.98
67109;BME280;54027;50.786;7.058;2023-02-13T16:02:17;102862.28;;;12.54;58.38
67109;BME280;54027;50.786;7.058;2023-02-13T16:04:44;102871.53;;;12.38;58.97
67109;BME280;54027;50.786;7.058;2023-02-13T16:07:10;102855.09;;;12.38;58.54
67109;BME280;54027;50.786;7.058;2023-02-13T16:09:36;102860.28;;;12.38;58.59
67109;BME280;54027;50.786;7.058;2023-02-13T16:12:05;102871.34;;;12.29;59.05
67109;BME280;54027;50.786;7.058;2023-02-13T16:14:35;102874.69;;;12.22;59.33